Time;durP1;ratioP1;P1;durP2;ratioP2;P2;SDS_P1;SDS_P2;PMS_P1;PMS_P2;Temp;Humidity;BMP_temperature;BMP_pressure;BME280_temperature;BME280_humidity;BME280_pressure;Samples;Min_cycle;Max_cycle;Signal;HPM_P1;HPM_P2
2022/03/10 00:00:24;;;;;;;44.83;40.40;;;2.10;65.80;;;;;;5092382;28;20214;-71
2022/03/10 00:02:51;;;;;;;46.75;41.78;;;2.00;65.80;;;;;;5092664;28;20695;-71
2022/03/10 00:05:19;;;;;;;42.30;37.80;;;2.00;65.90;;;;;;5092654;28;20230;-71
2022/03/10 00:07:47;;;;;;;45.45;40.75;;;2.00;66.00;;;;;;5092541;28;20204;-71
2022/03/10 00:10:14;;;;;;;43.70;39.40;;;2.00;65.90;;;;;;5092533;28;20209;-71
2022/03/10 00:12:48;;;;;;;41.92;37.65;;;2.00;65.70;;;;;;5092685;28;20218;-71
2022/03/10 00:15:16;;;;;;;43.83;39.53;;;2.00;65.80;;;;;;5092365;28;20299;-71
2022/03/10 00:17:45;;;;;;;44.45;39.75;;;2.00;66.00;;;;;;5092587;28;20208;-71
2022/03/10 00:20:13;;;;;;;42.97;39.08;;;2.00;65.80;;;;;;5092356;28;20710;-71
2022/03/10 00:22:47;;;;;;;42.70;38.47;;;1.90;65.80;;;;;;5092591;28;20228;-71
2022/03/10 00:25:14;;;;;;;43.50;39.00;;;1.90;66.00;;;;;;5096226;28;20199;-71
2022/03/10 00:27:41;;;;;;;41.95;37.83;;;1.80;66.40;;;;;;5096786;28;20227;-71
2022/03/10 00:30:09;;;;;;;42.05;37.60;;;1.80;66.50;;;;;;5096500;28;20238;-71
2022/03/10 00:32:44;;;;;;;43.10;38.80;;;1.80;66.30;;;;;;5096534;28;20215;-71
2022/03/10 00:35:11;;;;;;;43.20;38.65;;;1.80;66.30;;;;;;5096473;28;20231;-71
2022/03/10 00:37:38;;;;;;;42.17;37.95;;;1.70;66.50;;;;;;5096566;28;20230;-71
2022/03/10 00:40:06;;;;;;;42.78;38.28;;;1.70;66.50;;;;;;5096339;28;20202;-71
2022/03/10 00:42:37;;;;;;;43.47;39.35;;;1.60;66.90;;;;;;5096189;28;20298;-71
2022/03/10 00:45:06;;;;;;;43.90;39.47;;;1.60;66.90;;;;;;5096486;28;20197;-71
2022/03/10 00:47:33;;;;;;;43.97;39.38;;;1.60;67.00;;;;;;5096192;28;20665;-72
2022/03/10 00:50:01;;;;;;;45.75;41.05;;;1.50;67.30;;;;;;5096091;28;20677;-71
2022/03/10 00:52:29;;;;;;;44.60;40.25;;;1.60;67.30;;;;;;5096179;28;20218;-71
2022/03/10 00:54:56;;;;;;;44.50;39.85;;;1.50;67.50;;;;;;5096025;28;20223;-71
2022/03/10 00:57:23;;;;;;;45.85;40.95;;;1.50;67.60;;;;;;5096173;28;20193;-71
2022/03/10 00:59:50;;;;;;;42.92;38.55;;;1.50;67.50;;;;;;5095648;28;20675;-71
2022/03/10 01:02:17;;;;;;;42.58;38.25;;;1.50;67.60;;;;;;5096156;28;20250;-71
2022/03/10 01:04:44;;;;;;;42.40;37.90;;;1.50;67.50;;;;;;5095982;28;20281;-71
2022/03/10 01:07:12;;;;;;;42.10;38.05;;;1.50;67.70;;;;;;5095863;28;20229;-71
2022/03/10 01:09:39;;;;;;;44.85;40.20;;;1.50;67.60;;;;;;5095738;28;20284;-71
2022/03/10 01:12:07;;;;;;;44.75;40.45;;;1.60;67.40;;;;;;5095978;28;20222;-71
2022/03/10 01:14:34;;;;;;;42.72;38.20;;;1.50;67.50;;;;;;5095799;28;20309;-71
2022/03/10 01:17:01;;;;;;;42.40;38.40;;;1.50;67.70;;;;;;5095784;28;20200;-71
2022/03/10 01:19:29;;;;;;;43.22;38.90;;;1.50;67.90;;;;;;5095505;28;20288;-71
2022/03/10 01:21:56;;;;;;;43.65;39.30;;;1.40;68.10;;;;;;5095629;28;20253;-72
2022/03/10 01:24:24;;;;;;;45.28;40.45;;;1.40;67.90;;;;;;5095597;28;20293;-71
2022/03/10 01:26:51;;;;;;;41.65;37.53;;;1.40;68.20;;;;;;5095557;28;20209;-71
2022/03/10 01:29:18;;;;;;;41.90;37.85;;;1.40;68.10;;;;;;5095412;28;20559;-71
2022/03/10 01:31:45;;;;;;;44.03;39.47;;;1.40;68.20;;;;;;5095373;28;20339;-71
2022/03/10 01:34:12;;;;;;;41.42;37.33;;;1.40;68.00;;;;;;5095355;28;20244;-71
2022/03/10 01:36:39;;;;;;;40.90;36.80;;;1.40;67.80;;;;;;5094736;28;20209;-71
2022/03/10 01:39:06;;;;;;;41.88;37.92;;;1.40;67.90;;;;;;5095379;28;20296;-71
2022/03/10 01:41:35;;;;;;;41.90;37.90;;;1.40;67.90;;;;;;5095280;28;20266;-71
2022/03/10 01:44:04;;;;;;;42.13;38.33;;;1.40;67.90;;;;;;5094932;28;20637;-71
2022/03/10 01:46:31;;;;;;;43.42;38.72;;;1.40;68.00;;;;;;5095381;28;20206;-71
2022/03/10 01:48:59;;;;;;;41.33;37.28;;;1.30;68.20;;;;;;5095074;28;20202;-71
2022/03/10 01:51:27;;;;;;;42.42;38.30;;;1.30;68.30;;;;;;5095148;28;20223;-71
2022/03/10 01:53:54;;;;;;;41.67;37.67;;;1.30;68.40;;;;;;5095711;28;20201;-71
2022/03/10 01:56:23;;;;;;;43.05;38.85;;;1.30;68.50;;;;;;5095938;28;20226;-71
2022/03/10 01:58:53;;;;;;;42.10;38.05;;;1.20;68.70;;;;;;5095387;28;20284;-71
2022/03/10 02:01:20;;;;;;;41.42;37.40;;;1.20;68.90;;;;;;5095441;28;20770;-71
2022/03/10 02:03:47;;;;;;;41.97;37.80;;;1.20;69.10;;;;;;5095006;28;20202;-71
2022/03/10 02:06:15;;;;;;;44.33;39.60;;;1.20;69.10;;;;;;5095905;28;20191;-71
2022/03/10 02:11:28;;;;;;;41.00;37.33;;;1.10;69.40;;;;;;5095204;28;20282;-72
2022/03/10 02:13:56;;;;;;;40.88;36.97;;;1.00;69.90;;;;;;5094709;28;20569;-71
2022/03/10 02:19:08;;;;;;;43.08;38.90;;;1.00;70.20;;;;;;5094563;28;20255;-71
2022/03/10 02:21:35;;;;;;;40.13;36.30;;;1.00;70.80;;;;;;5094597;28;20220;-71
2022/03/10 02:24:04;;;;;;;44.05;39.67;;;0.90;70.50;;;;;;5094417;28;20199;-71
2022/03/10 02:26:31;;;;;;;41.97;37.92;;;1.10;70.30;;;;;;5094300;28;20241;-71
2022/03/10 02:28:59;;;;;;;41.60;37.55;;;1.00;70.20;;;;;;5094433;28;20322;-71
2022/03/10 02:31:26;;;;;;;40.67;36.60;;;0.90;70.40;;;;;;5094093;28;20781;-71
2022/03/10 02:33:55;;;;;;;41.97;37.63;;;0.90;70.70;;;;;;5094351;28;20225;-71
2022/03/10 02:36:22;;;;;;;41.20;37.13;;;0.90;70.90;;;;;;5094211;28;20627;-71
2022/03/10 02:38:48;;;;;;;42.92;38.55;;;0.80;71.20;;;;;;5094066;28;20281;-71
2022/03/10 02:41:17;;;;;;;41.80;37.83;;;0.80;71.20;;;;;;5093952;28;20310;-71
2022/03/10 02:43:44;;;;;;;40.42;36.60;;;0.70;71.30;;;;;;5093988;28;20206;-71
2022/03/10 02:46:11;;;;;;;40.85;36.45;;;0.70;71.20;;;;;;5094016;28;20603;-71
2022/03/10 02:48:37;;;;;;;43.40;39.15;;;0.70;71.20;;;;;;5092814;28;20559;-71
2022/03/10 02:51:04;;;;;;;41.70;37.85;;;0.70;71.10;;;;;;5093793;28;20307;-71
2022/03/10 02:53:31;;;;;;;40.63;36.92;;;0.80;71.00;;;;;;5093947;28;20201;-71
2022/03/10 02:55:58;;;;;;;41.42;37.15;;;0.80;71.00;;;;;;5093793;28;20256;-71
2022/03/10 02:58:26;;;;;;;40.97;36.72;;;0.80;71.00;;;;;;5093894;28;20583;-71
2022/03/10 03:00:53;;;;;;;40.88;36.95;;;0.70;71.20;;;;;;5093581;28;20236;-71
2022/03/10 03:03:20;;;;;;;41.83;37.92;;;0.60;71.80;;;;;;5093928;28;20284;-71
2022/03/10 03:05:47;;;;;;;40.65;36.85;;;0.60;71.90;;;;;;5093554;28;20219;-71
2022/03/10 03:08:22;;;;;;;39.63;35.63;;;0.60;72.20;;;;;;5110223;27;20892;-71
2022/03/10 03:10:49;;;;;;;40.97;37.13;;;0.50;72.10;;;;;;5110407;28;20194;-71
2022/03/10 03:13:16;;;;;;;42.40;38.22;;;0.50;72.20;;;;;;5110344;28;20226;-70
2022/03/10 03:15:43;;;;;;;40.85;37.00;;;0.50;72.10;;;;;;5110506;28;20199;-71
2022/03/10 03:18:10;;;;;;;38.95;35.33;;;0.50;72.20;;;;;;5110529;28;20192;-70
2022/03/10 03:20:37;;;;;;;41.40;37.50;;;0.50;72.10;;;;;;5110096;28;20197;-71
2022/03/10 03:23:04;;;;;;;39.70;36.00;;;0.50;72.10;;;;;;5110259;28;20222;-71
2022/03/10 03:25:32;;;;;;;40.70;37.20;;;0.50;72.00;;;;;;5110285;28;20195;-71
2022/03/10 03:27:59;;;;;;;41.80;37.70;;;0.50;72.10;;;;;;5110288;28;20305;-71
2022/03/10 03:30:26;;;;;;;38.80;35.00;;;0.50;72.30;;;;;;5109908;28;20687;-70
2022/03/10 03:32:53;;;;;;;41.63;37.75;;;0.50;72.30;;;;;;5110016;28;20256;-71
2022/03/10 03:35:19;;;;;;;40.95;37.35;;;0.60;72.10;;;;;;5109913;28;20564;-70
2022/03/10 03:37:46;;;;;;;42.55;38.60;;;0.60;72.10;;;;;;5110008;28;20572;-71
2022/03/10 03:40:13;;;;;;;42.22;38.25;;;0.50;72.50;;;;;;5109776;28;20289;-70
2022/03/10 03:42:41;;;;;;;38.47;34.63;;;0.50;72.40;;;;;;5109758;28;20223;-71
2022/03/10 03:45:09;;;;;;;38.78;35.35;;;0.50;72.30;;;;;;5109906;28;20284;-71
2022/03/10 03:47:36;;;;;;;42.55;38.25;;;0.40;72.30;;;;;;5109620;28;20776;-71
2022/03/10 03:50:04;;;;;;;41.53;37.15;;;0.50;72.10;;;;;;5109707;28;20225;-70
2022/03/10 03:52:31;;;;;;;40.38;36.15;;;0.50;71.90;;;;;;5109690;28;20576;-71
2022/03/10 03:54:58;;;;;;;41.03;37.17;;;0.50;71.90;;;;;;5109739;28;20196;-71
2022/03/10 03:57:24;;;;;;;39.35;35.75;;;0.40;72.10;;;;;;5109813;28;20193;-71
2022/03/10 03:59:53;;;;;;;43.28;39.05;;;0.40;72.20;;;;;;5109494;28;20198;-71
2022/03/10 04:02:22;;;;;;;40.42;36.72;;;0.40;72.50;;;;;;5109607;28;20703;-71
2022/03/10 04:04:49;;;;;;;41.05;37.03;;;0.30;72.70;;;;;;5109486;28;20286;-71
2022/03/10 04:07:16;;;;;;;40.15;36.55;;;0.30;72.80;;;;;;5109303;28;20229;-71
2022/03/10 04:09:42;;;;;;;40.58;36.78;;;0.20;73.00;;;;;;5109290;28;20222;-70
2022/03/10 04:12:09;;;;;;;40.95;37.05;;;0.20;73.30;;;;;;5109333;28;20216;-70
2022/03/10 04:14:37;;;;;;;41.50;37.60;;;0.20;73.40;;;;;;5109265;28;20286;-70
2022/03/10 04:17:06;;;;;;;41.55;37.72;;;0.10;73.50;;;;;;5109367;28;20293;-71
2022/03/10 04:19:33;;;;;;;40.92;37.22;;;0.10;73.70;;;;;;5096480;28;20195;-70
2022/03/10 04:22:00;;;;;;;40.35;36.58;;;0.10;73.80;;;;;;5095722;28;20222;-70
2022/03/10 04:24:27;;;;;;;43.28;39.25;;;0.20;73.40;;;;;;5095648;28;20205;-70
2022/03/10 04:26:54;;;;;;;40.83;36.92;;;0.20;72.90;;;;;;5095470;28;20216;-71
2022/03/10 04:29:21;;;;;;;40.45;36.63;;;0.20;73.00;;;;;;5095248;28;20256;-70
2022/03/10 04:31:48;;;;;;;40.00;36.28;;;0.20;73.40;;;;;;5095457;28;20643;-71
2022/03/10 04:34:16;;;;;;;41.78;37.90;;;0.20;73.60;;;;;;5095454;28;20204;-71
2022/03/10 04:36:43;;;;;;;39.38;36.00;;;0.20;73.80;;;;;;5095323;28;20195;-70
2022/03/10 04:39:10;;;;;;;42.38;39.05;;;0.20;73.90;;;;;;5094998;28;20289;-71
2022/03/10 04:41:36;;;;;;;38.80;35.50;;;0.10;74.30;;;;;;5095231;28;20272;-71
2022/03/10 04:44:04;;;;;;;40.30;36.70;;;0.10;74.80;;;;;;5094906;28;20233;-70
2022/03/10 04:46:31;;;;;;;40.22;36.72;;;0.10;74.50;;;;;;5095158;28;20234;-70
2022/03/10 04:48:58;;;;;;;41.08;37.47;;;0.10;74.30;;;;;;5094994;28;20200;-70
2022/03/10 04:51:26;;;;;;;41.20;37.40;;;0.10;74.40;;;;;;5094790;28;20222;-71
2022/03/10 04:53:53;;;;;;;40.40;37.00;;;0.10;74.80;;;;;;5095210;28;20557;-71
2022/03/10 04:56:20;;;;;;;41.63;37.60;;;0.10;74.90;;;;;;5094958;28;20558;-71
2022/03/10 04:58:46;;;;;;;42.90;39.03;;;0.10;75.00;;;;;;5094751;28;20223;-71
2022/03/10 05:01:14;;;;;;;40.10;36.40;;;0.00;75.10;;;;;;5094546;28;20235;-71
2022/03/10 05:03:41;;;;;;;40.28;36.78;;;0.00;75.10;;;;;;5094999;28;20283;-71
2022/03/10 05:06:08;;;;;;;39.25;35.70;;;0.00;75.10;;;;;;5094572;28;20289;-70
2022/03/10 05:08:36;;;;;;;38.60;35.10;;;0.00;75.00;;;;;;5094739;28;20304;-71
2022/03/10 05:11:03;;;;;;;40.72;36.63;;;0.00;75.00;;;;;;5094431;28;20205;-71
2022/03/10 05:13:29;;;;;;;40.47;36.97;;;0.00;74.80;;;;;;5094677;28;20291;-71
2022/03/10 05:15:56;;;;;;;40.55;36.53;;;0.00;74.80;;;;;;5094540;28;20691;-70
2022/03/10 05:18:23;;;;;;;38.92;35.47;;;0.00;74.90;;;;;;5094707;28;20280;-70
2022/03/10 05:20:50;;;;;;;40.25;36.53;;;-0.10;75.00;;;;;;5094394;28;20199;-71
2022/03/10 05:23:17;;;;;;;44.25;40.15;;;-0.10;75.20;;;;;;5094372;28;20311;-70
2022/03/10 05:25:45;;;;;;;39.60;36.08;;;0.00;75.00;;;;;;5094340;28;20662;-70
2022/03/10 05:28:14;;;;;;;39.95;36.35;;;0.00;75.10;;;;;;5094221;28;20229;-71
2022/03/10 05:30:41;;;;;;;40.53;36.53;;;0.00;74.90;;;;;;5093152;28;20200;-70
2022/03/10 05:33:08;;;;;;;41.05;37.45;;;0.00;74.80;;;;;;5094132;28;20578;-70
2022/03/10 05:35:35;;;;;;;39.80;35.88;;;-0.10;74.90;;;;;;5094219;28;20795;-71
2022/03/10 05:38:02;;;;;;;40.30;36.70;;;-0.10;74.90;;;;;;5094012;28;20198;-71
2022/03/10 05:40:30;;;;;;;39.90;36.17;;;-0.10;74.70;;;;;;5093937;28;20198;-71
2022/03/10 05:42:58;;;;;;;40.28;36.47;;;-0.10;74.50;;;;;;5093907;28;20215;-70
2022/03/10 05:45:26;;;;;;;41.80;37.65;;;0.00;74.30;;;;;;5094097;28;20202;-71
2022/03/10 05:47:55;;;;;;;39.97;36.33;;;0.00;74.50;;;;;;5093826;28;20240;-71
2022/03/10 05:50:22;;;;;;;38.33;35.00;;;-0.10;74.60;;;;;;5093789;28;20290;-71
2022/03/10 05:52:50;;;;;;;39.83;36.40;;;0.00;74.50;;;;;;5093736;28;20738;-71
2022/03/10 05:55:18;;;;;;;42.60;38.67;;;-0.10;74.50;;;;;;5093623;28;20195;-71
2022/03/10 05:57:45;;;;;;;41.55;37.30;;;0.00;74.40;;;;;;5093877;28;20317;-71
2022/03/10 06:00:14;;;;;;;43.25;39.45;;;0.00;74.50;;;;;;5093530;28;20207;-71
2022/03/10 06:02:41;;;;;;;42.53;38.42;;;0.00;74.60;;;;;;5093889;28;20223;-70
2022/03/10 06:05:09;;;;;;;41.50;37.80;;;0.00;74.60;;;;;;5093594;28;20223;-71
2022/03/10 06:07:36;;;;;;;41.28;37.55;;;0.00;74.50;;;;;;5093320;28;20640;-71
2022/03/10 06:10:04;;;;;;;41.42;37.40;;;0.00;74.80;;;;;;5093465;28;20198;-71
2022/03/10 06:12:31;;;;;;;41.15;37.20;;;0.10;74.90;;;;;;5093466;28;20219;-71
2022/03/10 06:14:59;;;;;;;40.28;36.75;;;0.10;75.00;;;;;;5093432;28;20196;-71
2022/03/10 06:17:29;;;;;;;43.60;39.40;;;0.10;75.10;;;;;;5093289;28;20688;-70
2022/03/10 06:19:56;;;;;;;41.28;37.53;;;0.20;74.80;;;;;;5093226;28;20196;-71
2022/03/10 06:22:25;;;;;;;42.95;38.90;;;0.20;74.70;;;;;;5093362;28;20218;-71
2022/03/10 06:24:52;;;;;;;44.25;40.10;;;0.30;76.20;;;;;;5093234;28;20223;-70
2022/03/10 06:27:22;;;;;;;44.28;39.95;;;0.30;79.00;;;;;;5093124;28;20252;-71
2022/03/10 06:29:49;;;;;;;41.33;37.55;;;0.40;78.70;;;;;;5092869;28;20206;-71
2022/03/10 06:32:17;;;;;;;41.30;37.40;;;0.50;76.70;;;;;;5093169;28;20700;-71
2022/03/10 06:34:46;;;;;;;43.45;39.38;;;0.60;75.80;;;;;;5093164;28;20207;-71
2022/03/10 06:37:13;;;;;;;42.63;38.60;;;0.60;76.50;;;;;;5093150;28;20287;-71
2022/03/10 06:39:41;;;;;;;41.38;37.45;;;0.70;76.60;;;;;;5092782;28;20243;-71
2022/03/10 06:42:09;;;;;;;44.05;39.60;;;0.70;78.60;;;;;;5092571;28;20659;-71
2022/03/10 06:44:37;;;;;;;41.60;37.65;;;0.80;78.90;;;;;;5093064;28;20226;-71
2022/03/10 06:47:04;;;;;;;44.88;40.47;;;0.90;88.50;;;;;;5092925;28;20196;-71
2022/03/10 06:49:31;;;;;;;42.53;38.67;;;1.00;81.80;;;;;;5092445;28;20283;-70
2022/03/10 06:52:00;;;;;;;40.75;36.80;;;1.10;78.30;;;;;;5092856;28;20252;-71
2022/03/10 06:54:27;;;;;;;40.67;36.92;;;1.20;76.00;;;;;;5092851;28;20202;-71
2022/03/10 06:56:54;;;;;;;42.78;38.40;;;1.30;74.70;;;;;;5092794;28;20288;-71
2022/03/10 06:59:21;;;;;;;43.47;39.30;;;1.30;73.20;;;;;;5092760;28;20235;-70
2022/03/10 07:01:48;;;;;;;42.78;38.55;;;1.40;72.50;;;;;;5092652;28;20314;-71
2022/03/10 07:04:15;;;;;;;44.25;40.00;;;1.50;71.80;;;;;;5092739;28;20289;-71
2022/03/10 07:06:42;;;;;;;43.10;39.05;;;1.60;71.70;;;;;;5092577;28;20610;-71
2022/03/10 07:09:10;;;;;;;42.60;38.45;;;1.70;71.00;;;;;;5092478;28;20216;-71
2022/03/10 07:11:37;;;;;;;44.13;39.63;;;1.80;70.70;;;;;;5092570;28;20312;-71
2022/03/10 07:14:04;;;;;;;44.60;39.10;;;1.90;70.30;;;;;;5092576;28;20279;-71
2022/03/10 07:16:31;;;;;;;43.67;39.20;;;2.10;69.40;;;;;;5092676;28;20194;-71
2022/03/10 07:18:58;;;;;;;40.50;36.47;;;2.20;68.90;;;;;;5092552;28;20288;-71
2022/03/10 07:21:25;;;;;;;56.78;40.60;;;2.30;68.80;;;;;;5092475;28;20221;-71
2022/03/10 07:23:52;;;;;;;43.97;39.60;;;2.40;68.80;;;;;;5092679;28;20284;-71
2022/03/10 07:26:21;;;;;;;45.33;40.42;;;2.60;68.70;;;;;;5092551;28;20688;-71
2022/03/10 07:28:48;;;;;;;43.22;38.80;;;2.70;68.70;;;;;;5092315;28;20220;-71
2022/03/10 07:31:15;;;;;;;45.88;40.95;;;2.80;68.10;;;;;;5092259;28;20213;-71
2022/03/10 07:33:42;;;;;;;45.50;41.22;;;2.90;67.30;;;;;;5092602;28;20259;-70
2022/03/10 07:36:09;;;;;;;44.90;40.72;;;3.00;66.60;;;;;;5092514;28;20209;-70
2022/03/10 07:38:36;;;;;;;45.10;40.00;;;3.10;66.20;;;;;;5092333;28;20230;-71
2022/03/10 07:41:03;;;;;;;43.53;39.33;;;3.20;65.10;;;;;;5092155;28;20197;-71
2022/03/10 07:43:31;;;;;;;44.75;40.75;;;3.30;64.80;;;;;;5092305;28;20201;-71
2022/03/10 07:45:58;;;;;;;43.67;39.40;;;3.40;65.00;;;;;;5092413;28;20570;-71
2022/03/10 07:48:25;;;;;;;44.50;39.67;;;3.50;65.10;;;;;;5092133;28;20312;-71
2022/03/10 07:50:52;;;;;;;44.22;40.03;;;3.70;64.80;;;;;;5092273;28;20295;-71
2022/03/10 07:53:19;;;;;;;43.80;39.47;;;3.80;64.40;;;;;;5093212;28;20204;-71
2022/03/10 07:55:47;;;;;;;44.15;39.80;;;3.90;64.00;;;;;;5096119;28;20650;-70
2022/03/10 07:58:14;;;;;;;43.00;38.53;;;4.00;63.40;;;;;;5096019;28;20198;-71
2022/03/10 08:00:42;;;;;;;42.55;38.17;;;4.20;62.50;;;;;;5095878;28;20249;-71
2022/03/10 08:03:09;;;;;;;39.72;36.22;;;4.30;62.00;;;;;;5095930;28;20245;-71
2022/03/10 08:05:37;;;;;;;42.35;38.38;;;4.40;61.50;;;;;;5095860;28;20383;-71
2022/03/10 08:08:05;;;;;;;45.22;40.63;;;4.50;61.10;;;;;;5095571;28;20221;-71
2022/03/10 08:10:32;;;;;;;43.92;39.75;;;4.70;60.90;;;;;;5095579;28;20208;-71
2022/03/10 08:12:59;;;;;;;44.80;40.60;;;4.80;60.70;;;;;;5095742;28;20222;-71
2022/03/10 08:15:27;;;;;;;42.00;38.20;;;4.90;59.90;;;;;;5095805;28;20690;-71
2022/03/10 08:17:55;;;;;;;42.63;38.22;;;5.00;59.70;;;;;;5095572;28;20286;-71
2022/03/10 08:20:23;;;;;;;44.55;40.33;;;5.10;59.60;;;;;;5095591;28;20203;-71
2022/03/10 08:22:50;;;;;;;42.85;38.65;;;5.20;59.60;;;;;;5095485;28;20716;-71
2022/03/10 08:25:17;;;;;;;43.78;39.42;;;5.30;59.20;;;;;;5095596;28;20285;-71
2022/03/10 08:27:45;;;;;;;44.22;39.80;;;5.50;58.90;;;;;;5095610;28;20622;-71
2022/03/10 08:30:13;;;;;;;45.03;40.75;;;5.60;58.60;;;;;;5095149;28;20202;-71
2022/03/10 08:32:40;;;;;;;44.60;40.33;;;5.70;58.20;;;;;;5095481;28;20216;-71
2022/03/10 08:35:09;;;;;;;45.20;41.15;;;5.80;57.70;;;;;;5095327;28;20202;-71
2022/03/10 08:37:36;;;;;;;43.60;39.63;;;6.00;57.50;;;;;;5095316;28;20659;-71
2022/03/10 08:40:04;;;;;;;44.15;39.67;;;6.10;57.10;;;;;;5095104;28;20297;-71
2022/03/10 08:42:31;;;;;;;41.85;37.92;;;6.20;56.70;;;;;;5095053;28;20215;-71
2022/03/10 08:44:58;;;;;;;44.42;40.05;;;6.30;56.10;;;;;;5095243;28;20283;-71
2022/03/10 08:47:25;;;;;;;45.53;41.20;;;6.40;56.10;;;;;;5094975;28;20199;-71
2022/03/10 08:49:51;;;;;;;45.28;40.78;;;6.50;55.90;;;;;;5094768;28;20303;-71
2022/03/10 08:52:20;;;;;;;43.35;39.35;;;6.60;55.70;;;;;;5094979;28;20304;-71
2022/03/10 08:54:47;;;;;;;45.33;40.92;;;6.80;55.30;;;;;;5095086;28;20253;-71
2022/03/10 08:57:14;;;;;;;41.58;37.53;;;6.90;54.70;;;;;;5094931;28;20675;-71
2022/03/10 08:59:41;;;;;;;45.33;40.50;;;6.90;54.50;;;;;;5094764;28;20202;-71
2022/03/10 09:02:08;;;;;;;42.97;39.35;;;7.10;54.30;;;;;;5094929;28;20561;-71
2022/03/10 09:04:35;;;;;;;42.95;38.78;;;7.20;53.80;;;;;;5094830;28;20196;-71
2022/03/10 09:07:02;;;;;;;43.42;39.08;;;7.30;53.70;;;;;;5094706;28;20216;-71
2022/03/10 09:09:30;;;;;;;45.42;39.65;;;7.40;53.30;;;;;;5094541;28;20222;-71
2022/03/10 09:11:57;;;;;;;46.70;42.33;;;7.60;53.40;;;;;;5094661;28;20214;-71
2022/03/10 09:14:24;;;;;;;42.55;38.28;;;7.70;53.10;;;;;;5094641;28;20196;-71
2022/03/10 09:16:52;;;;;;;43.58;39.47;;;7.90;52.90;;;;;;5094489;28;20247;-71
2022/03/10 09:19:19;;;;;;;43.15;39.13;;;8.10;52.30;;;;;;5094303;28;20572;-71
2022/03/10 09:21:46;;;;;;;41.65;37.92;;;8.10;52.10;;;;;;5094464;28;20305;-72
2022/03/10 09:24:13;;;;;;;42.03;38.28;;;8.20;52.20;;;;;;5094394;28;20286;-71
2022/03/10 09:26:42;;;;;;;39.17;35.72;;;8.30;52.00;;;;;;5094510;28;20191;-71
2022/03/10 09:29:09;;;;;;;41.15;37.63;;;8.30;51.40;;;;;;5093969;28;20218;-72
2022/03/10 09:31:35;;;;;;;39.20;36.13;;;8.40;51.30;;;;;;5094214;28;20588;-72
2022/03/10 09:34:04;;;;;;;37.92;34.60;;;8.60;51.10;;;;;;5094282;28;20200;-72
2022/03/10 09:36:31;;;;;;;38.47;35.00;;;8.80;50.50;;;;;;5094175;28;20199;-71
2022/03/10 09:38:58;;;;;;;51.17;45.70;;;9.10;50.00;;;;;;5094146;28;20281;-72
2022/03/10 09:41:28;;;;;;;33.92;30.67;;;9.20;49.40;;;;;;5093886;28;20223;-72
2022/03/10 09:43:57;;;;;;;33.42;30.80;;;9.40;49.00;;;;;;5093767;28;20792;-71
2022/03/10 09:46:24;;;;;;;32.50;30.20;;;9.50;48.80;;;;;;5093905;28;20604;-72
2022/03/10 09:48:53;;;;;;;63.25;54.70;;;9.70;48.50;;;;;;5093610;28;20222;-71
2022/03/10 09:51:22;;;;;;;174.80;98.60;;;9.90;47.90;;;;;;5093667;28;20215;-72
2022/03/10 09:53:49;;;;;;;34.78;32.15;;;10.00;47.60;;;;;;5093810;28;20241;-72
2022/03/10 09:56:19;;;;;;;33.78;31.38;;;10.20;46.90;;;;;;5093732;28;20191;-72
2022/03/10 09:58:46;;;;;;;32.28;30.08;;;10.30;46.70;;;;;;5093685;28;20203;-71
2022/03/10 10:01:14;;;;;;;36.38;33.25;;;10.50;46.50;;;;;;5093441;28;20660;-72
2022/03/10 10:03:41;;;;;;;41.15;37.30;;;10.50;46.00;;;;;;5093811;28;20197;-72
2022/03/10 10:06:08;;;;;;;30.90;28.80;;;10.60;45.50;;;;;;5093473;28;20291;-72
2022/03/10 10:08:38;;;;;;;32.08;29.60;;;10.50;45.60;;;;;;5093474;28;20230;-71
2022/03/10 10:11:06;;;;;;;32.53;30.13;;;10.60;45.80;;;;;;5093299;28;20204;-72
2022/03/10 10:13:34;;;;;;;61.63;55.97;;;10.80;45.60;;;;;;5093624;28;20671;-71
2022/03/10 10:16:04;;;;;;;33.37;30.93;;;10.90;45.20;;;;;;5093018;28;20504;-72
2022/03/10 10:18:33;;;;;;;31.17;28.63;;;11.00;45.10;;;;;;5093390;28;20451;-72
2022/03/10 10:21:01;;;;;;;29.13;27.20;;;11.10;44.70;;;;;;5093142;28;20450;-71
2022/03/10 10:23:29;;;;;;;40.23;36.70;;;11.30;44.90;;;;;;5093323;28;20450;-72
2022/03/10 10:25:58;;;;;;;33.10;30.90;;;11.30;44.70;;;;;;5093299;28;20461;-72
2022/03/10 10:28:31;;;;;;;30.50;28.50;;;11.40;44.50;;;;;;5093343;28;20824;-71
2022/03/10 10:31:01;;;;;;;38.87;35.87;;;11.60;44.30;;;;;;5092995;28;20460;-71
2022/03/10 10:33:28;;;;;;;34.30;31.97;;;11.60;44.60;;;;;;5093554;28;20454;-71
2022/03/10 10:36:23;;;;;;;30.70;28.70;;;11.60;44.60;;;;;;5093003;28;20963;-71
2022/03/10 10:38:50;;;;;;;29.97;27.80;;;11.70;44.70;;;;;;5093019;28;20534;-71
2022/03/10 10:41:22;;;;;;;29.00;26.97;;;11.90;44.30;;;;;;5092859;28;21037;-71
2022/03/10 10:43:51;;;;;;;30.03;27.97;;;12.00;43.80;;;;;;5092828;28;20460;-71
2022/03/10 10:46:27;;;;;;;30.07;28.00;;;12.10;43.60;;;;;;5092783;28;20461;-71
2022/03/10 10:48:54;;;;;;;30.97;28.87;;;12.10;43.50;;;;;;5092648;28;20479;-72
2022/03/10 10:51:34;;;;;;;29.03;27.23;;;12.20;43.40;;;;;;5092786;28;20471;-71
2022/03/10 10:54:03;;;;;;;29.10;27.30;;;12.40;43.10;;;;;;5093477;28;20456;-71
2022/03/10 10:56:33;;;;;;;28.93;26.80;;;12.40;42.60;;;;;;5092823;28;20593;-72
2022/03/10 10:59:02;;;;;;;29.30;27.20;;;12.40;42.80;;;;;;5092842;28;20525;-71
2022/03/10 11:01:34;;;;;;;31.50;29.30;;;12.40;42.90;;;;;;5092661;28;20558;-72
2022/03/10 11:04:03;;;;;;;29.40;27.30;;;12.50;42.70;;;;;;5092881;28;20941;-72
2022/03/10 11:06:32;;;;;;;30.63;28.40;;;12.40;42.70;;;;;;5092605;28;20457;-72
2022/03/10 11:08:59;;;;;;;29.90;27.93;;;12.20;42.80;;;;;;5092660;28;20481;-72
2022/03/10 11:11:26;;;;;;;29.50;27.40;;;12.20;42.50;;;;;;5092428;28;20471;-72
2022/03/10 11:13:53;;;;;;;28.63;26.83;;;12.30;42.60;;;;;;5092661;28;20548;-72
2022/03/10 11:16:21;;;;;;;28.43;26.63;;;12.50;42.20;;;;;;5092681;28;20487;-72
2022/03/10 11:18:51;;;;;;;28.57;26.60;;;12.70;41.70;;;;;;5092564;28;20980;-72
2022/03/10 11:21:57;;;;;;;26.90;25.20;;;12.90;41.10;;;;;;5092528;28;20511;-72
2022/03/10 11:25:11;;;;;;;27.83;26.13;;;12.90;40.60;;;;;;5092697;28;20536;-72
2022/03/10 11:27:45;;;;;;;27.17;25.47;;;12.80;40.30;;;;;;5030265;28;20444;-72
2022/03/10 11:30:12;;;;;;;35.53;33.07;;;12.80;40.10;;;;;;5084008;28;20487;-72
2022/03/10 11:32:39;;;;;;;35.73;33.33;;;12.90;40.20;;;;;;5096642;28;20555;-72
2022/03/10 11:35:07;;;;;;;28.10;26.37;;;13.20;39.90;;;;;;5096587;28;20541;-72
2022/03/10 11:37:49;;;;;;;28.57;26.77;;;13.30;39.30;;;;;;5096535;28;20455;-72
2022/03/10 11:40:18;;;;;;;28.70;27.00;;;13.50;39.00;;;;;;5096381;28;20452;-72
2022/03/10 11:42:46;;;;;;;27.17;25.47;;;13.70;38.60;;;;;;5096222;28;20476;-72
2022/03/10 11:45:17;;;;;;;26.57;24.97;;;13.80;38.60;;;;;;5096360;28;20530;-72
2022/03/10 11:47:46;;;;;;;25.70;24.17;;;13.80;38.20;;;;;;5096373;28;20453;-72
2022/03/10 11:50:27;;;;;;;29.20;27.67;;;13.70;38.40;;;;;;5096044;28;20558;-71
2022/03/10 11:52:59;;;;;;;26.20;24.50;;;13.80;38.10;;;;;;5096143;28;20617;-72
2022/03/10 11:55:40;;;;;;;26.13;24.23;;;14.00;37.90;;;;;;5096188;28;20517;-72
2022/03/10 11:58:10;;;;;;;25.50;24.00;;;13.80;37.60;;;;;;5096151;28;20454;-72
2022/03/10 12:00:53;;;;;;;26.37;24.73;;;13.90;37.60;;;;;;5096037;28;20529;-72
2022/03/10 12:03:27;;;;;;;26.90;25.20;;;13.90;37.70;;;;;;5096112;28;20499;-72
2022/03/10 12:05:56;;;;;;;26.70;25.00;;;14.00;37.70;;;;;;5095999;28;20450;-72
2022/03/10 12:08:24;;;;;;;26.37;24.77;;;14.10;37.30;;;;;;5095965;28;20456;-72
2022/03/10 12:10:51;;;;;;;25.67;24.23;;;14.20;36.70;;;;;;5095708;28;20472;-71
2022/03/10 12:13:26;;;;;;;26.10;24.50;;;13.90;36.60;;;;;;5095828;28;20559;-72
2022/03/10 12:15:53;;;;;;;28.13;26.20;;;14.00;37.00;;;;;;5095673;28;20453;-72
2022/03/10 12:18:25;;;;;;;26.70;25.10;;;14.20;37.00;;;;;;5095742;28;21016;-71
2022/03/10 12:20:57;;;;;;;25.17;23.77;;;14.20;36.40;;;;;;5095597;28;20967;-72
2022/03/10 12:23:26;;;;;;;26.57;24.70;;;14.00;36.50;;;;;;5095897;28;20451;-72
2022/03/10 12:25:55;;;;;;;26.70;25.10;;;13.90;36.40;;;;;;5095595;28;20489;-72
2022/03/10 12:28:30;;;;;;;26.80;25.10;;;13.90;36.20;;;;;;5095520;28;20446;-72
2022/03/10 12:31:14;;;;;;;26.63;25.00;;;14.10;36.20;;;;;;5095190;28;20480;-72
2022/03/10 12:33:50;;;;;;;27.70;26.10;;;14.00;36.30;;;;;;5095419;28;20885;-72
2022/03/10 12:36:29;;;;;;;27.17;25.10;;;13.80;36.30;;;;;;5095446;28;20452;-72
2022/03/10 12:38:56;;;;;;;26.10;24.60;;;13.90;36.20;;;;;;5094841;28;20452;-72
2022/03/10 12:41:28;;;;;;;26.70;25.10;;;13.90;35.90;;;;;;5095108;28;20838;-72
2022/03/10 12:43:56;;;;;;;26.93;25.23;;;14.10;36.10;;;;;;5095037;28;20551;-72